Union Star, Missouri
Current Conditions -  °F | °C
As of 11:53 PM on Thursday 30 Oct 2014 (Local Time) from KSTJ Reporting Station
Overcast Overcast  
Wind Chill: 51°   Ceiling: 6500
Heat Index: 51°   Visibility: 10mi
Dew Point: 42°   Wind: 10mph
Humidity: 71%   Direction: 340°NNW
Pressure: 30.24"   Gusts: NA
Location:  39.98°N, 94.59°W
Report Text: KSTJ 310453Z AUTO 34009KT 10SM OVC065 11/06 A3024 RMK AO2 SLP239 T01060056
Loading
Personal Weather Stations






























Interactive Weather Map
Tropical Storm Tracking
New forecast layout! Learn more

10-Day Weather Forecast

Advertisements
Track Severe Weather on mobile